Terminal Aerodrome Forecast
Issued by NWS

Home | Current Version | Previous Version | Text Only | Print | Product List | Glossary On
Versions: 1 2 3 4 5 6 7 8 9 10 11 12 13 14 15 16 17 18 19 20 21 22 23 24 25
000
FTUS43 KLSX 262339
TAFCPS
TAF
KCPS 262339Z 2700/2724 17007KT 4SM RA VCTS OVC020CB
      TEMPO 2700/2703 2SM +TSRA OVC010CB
     FM270400 29010G17KT 5SM -RA BR OVC008
     FM271100 28011G17KT P6SM OVC010
     FM271600 27010KT P6SM BKN040
     FM272000 27008KT P6SM FEW250=

USA.gov is the U.S. government's official web portal to all federal, state and local government web resources and services.